sensor_id;sensor_type;location;lat;lon;timestamp;temperature;humidity
46458;DHT22;32155;54.076;12.092;2024-01-10T00:01:43;-2.40;99.90
46458;DHT22;32155;54.076;12.092;2024-01-10T00:04:08;-2.40;99.90
46458;DHT22;32155;54.076;12.092;2024-01-10T00:06:37;-2.50;99.90
46458;DHT22;32155;54.076;12.092;2024-01-10T00:09:02;-2.40;99.90
46458;DHT22;32155;54.076;12.092;2024-01-10T00:11:28;-2.40;99.90
46458;DHT22;32155;54.076;12.092;2024-01-10T00:13:56;-2.50;99.90
46458;DHT22;32155;54.076;12.092;2024-01-10T00:16:28;-2.40;99.90
46458;DHT22;32155;54.076;12.092;2024-01-10T00:18:53;-2.30;99.90
46458;DHT22;32155;54.076;12.092;2024-01-10T00:21:19;-2.30;99.90
46458;DHT22;32155;54.076;12.092;2024-01-10T00:23:44;-2.30;99.90
46458;DHT22;32155;54.076;12.092;2024-01-10T00:26:10;-2.40;99.90
46458;DHT22;32155;54.076;12.092;2024-01-10T00:28:35;-2.30;99.90
46458;DHT22;32155;54.076;12.092;2024-01-10T00:31:04;-2.30;99.90
46458;DHT22;32155;54.076;12.092;2024-01-10T00:33:35;-2.30;99.90
46458;DHT22;32155;54.076;12.092;2024-01-10T00:36:01;-2.30;99.90
46458;DHT22;32155;54.076;12.092;2024-01-10T00:38:27;-2.40;99.90
46458;DHT22;32155;54.076;12.092;2024-01-10T00:40:52;-2.40;99.90
46458;DHT22;32155;54.076;12.092;2024-01-10T00:43:18;-2.30;99.90
46458;DHT22;32155;54.076;12.092;2024-01-10T00:45:43;-2.40;99.90
46458;DHT22;32155;54.076;12.092;2024-01-10T00:48:09;-2.40;99.90
46458;DHT22;32155;54.076;12.092;2024-01-10T00:50:34;-2.30;99.90
46458;DHT22;32155;54.076;12.092;2024-01-10T00:53:00;-2.30;99.90
46458;DHT22;32155;54.076;12.092;2024-01-10T00:55:25;-2.20;99.90
46458;DHT22;32155;54.076;12.092;2024-01-10T00:57:50;-2.20;99.90
46458;DHT22;32155;54.076;12.092;2024-01-10T01:00:18;-2.00;99.90
46458;DHT22;32155;54.076;12.092;2024-01-10T01:02:44;-2.10;99.90
46458;DHT22;32155;54.076;12.092;2024-01-10T01:05:10;-2.10;99.90
46458;DHT22;32155;54.076;12.092;2024-01-10T01:07:35;-2.20;99.90
46458;DHT22;32155;54.076;12.092;2024-01-10T01:10:01;-2.10;99.90
46458;DHT22;32155;54.076;12.092;2024-01-10T01:12:28;-2.10;99.90
46458;DHT22;32155;54.076;12.092;2024-01-10T01:14:55;-2.10;99.90
46458;DHT22;32155;54.076;12.092;2024-01-10T01:17:21;-2.20;99.90
46458;DHT22;32155;54.076;12.092;2024-01-10T01:19:47;-2.20;99.90
46458;DHT22;32155;54.076;12.092;2024-01-10T01:22:12;-2.20;99.90
46458;DHT22;32155;54.076;12.092;2024-01-10T01:24:38;-2.20;99.90
46458;DHT22;32155;54.076;12.092;2024-01-10T01:27:03;-2.10;99.90
46458;DHT22;32155;54.076;12.092;2024-01-10T01:29:29;-2.10;99.90
46458;DHT22;32155;54.076;12.092;2024-01-10T01:31:56;-2.00;99.90
46458;DHT22;32155;54.076;12.092;2024-01-10T01:34:22;-1.70;99.90
46458;DHT22;32155;54.076;12.092;2024-01-10T01:36:48;-1.80;99.90
46458;DHT22;32155;54.076;12.092;2024-01-10T01:39:13;-1.80;99.90
46458;DHT22;32155;54.076;12.092;2024-01-10T01:41:39;-1.80;99.90
46458;DHT22;32155;54.076;12.092;2024-01-10T01:44:04;-1.90;99.90
46458;DHT22;32155;54.076;12.092;2024-01-10T01:46:30;-1.90;99.90
46458;DHT22;32155;54.076;12.092;2024-01-10T01:48:59;-1.80;99.90
46458;DHT22;32155;54.076;12.092;2024-01-10T01:51:28;-1.90;99.90
46458;DHT22;32155;54.076;12.092;2024-01-10T01:53:54;-1.80;99.90
46458;DHT22;32155;54.076;12.092;2024-01-10T01:56:23;-1.70;99.90
46458;DHT22;32155;54.076;12.092;2024-01-10T01:58:50;-1.90;99.90
46458;DHT22;32155;54.076;12.092;2024-01-10T02:01:15;-1.90;99.90
46458;DHT22;32155;54.076;12.092;2024-01-10T02:03:41;-1.70;99.90
46458;DHT22;32155;54.076;12.092;2024-01-10T02:06:07;-1.70;99.90
46458;DHT22;32155;54.076;12.092;2024-01-10T02:08:33;-1.80;99.90
46458;DHT22;32155;54.076;12.092;2024-01-10T02:10:59;-1.90;99.90
46458;DHT22;32155;54.076;12.092;2024-01-10T02:13:24;-1.80;99.90
46458;DHT22;32155;54.076;12.092;2024-01-10T02:15:50;-1.80;99.90
46458;DHT22;32155;54.076;12.092;2024-01-10T02:18:16;-1.70;99.90
46458;DHT22;32155;54.076;12.092;2024-01-10T02:20:45;-1.90;99.90
46458;DHT22;32155;54.076;12.092;2024-01-10T02:23:14;-1.80;99.90
46458;DHT22;32155;54.076;12.092;2024-01-10T02:25:42;-1.60;99.90
46458;DHT22;32155;54.076;12.092;2024-01-10T02:28:08;-1.60;99.90
46458;DHT22;32155;54.076;12.092;2024-01-10T02:30:34;-1.60;99.90
46458;DHT22;32155;54.076;12.092;2024-01-10T02:33:00;-1.70;99.90
46458;DHT22;32155;54.076;12.092;2024-01-10T02:35:25;-1.70;99.90
46458;DHT22;32155;54.076;12.092;2024-01-10T02:37:58;-1.60;99.90
46458;DHT22;32155;54.076;12.092;2024-01-10T02:40:25;-1.70;99.90
46458;DHT22;32155;54.076;12.092;2024-01-10T02:42:51;-1.80;99.90
46458;DHT22;32155;54.076;12.092;2024-01-10T02:45:17;-1.80;99.90
46458;DHT22;32155;54.076;12.092;2024-01-10T02:47:45;-1.70;99.90
46458;DHT22;32155;54.076;12.092;2024-01-10T02:50:10;-1.50;99.90
46458;DHT22;32155;54.076;12.092;2024-01-10T02:52:39;-1.60;99.90
46458;DHT22;32155;54.076;12.092;2024-01-10T02:55:05;-1.80;99.90
46458;DHT22;32155;54.076;12.092;2024-01-10T02:57:30;-1.60;99.90
46458;DHT22;32155;54.076;12.092;2024-01-10T02:59:56;-1.60;99.90
46458;DHT22;32155;54.076;12.092;2024-01-10T03:02:21;-1.60;99.90
46458;DHT22;32155;54.076;12.092;2024-01-10T03:04:48;-1.70;99.90
46458;DHT22;32155;54.076;12.092;2024-01-10T03:07:14;-1.70;99.90
46458;DHT22;32155;54.076;12.092;2024-01-10T03:09:40;-1.60;99.90
46458;DHT22;32155;54.076;12.092;2024-01-10T03:12:05;-1.60;99.90
46458;DHT22;32155;54.076;12.092;2024-01-10T03:14:32;-1.50;99.90
46458;DHT22;32155;54.076;12.092;2024-01-10T03:16:58;-1.60;99.90
46458;DHT22;32155;54.076;12.092;2024-01-10T03:19:23;-1.60;99.90
46458;DHT22;32155;54.076;12.092;2024-01-10T03:21:49;-1.70;99.90
46458;DHT22;32155;54.076;12.092;2024-01-10T03:24:14;-1.80;99.90
46458;DHT22;32155;54.076;12.092;2024-01-10T03:26:40;-1.70;99.90
46458;DHT22;32155;54.076;12.092;2024-01-10T03:29:06;-1.70;99.90
46458;DHT22;32155;54.076;12.092;2024-01-10T03:31:31;-1.60;99.90
46458;DHT22;32155;54.076;12.092;2024-01-10T03:33:59;-1.70;99.90
46458;DHT22;32155;54.076;12.092;2024-01-10T03:36:24;-1.60;99.90
46458;DHT22;32155;54.076;12.092;2024-01-10T03:38:50;-1.60;99.90
46458;DHT22;32155;54.076;12.092;2024-01-10T03:41:16;-1.70;99.90
46458;DHT22;32155;54.076;12.092;2024-01-10T03:43:42;-1.60;99.90
46458;DHT22;32155;54.076;12.092;2024-01-10T03:46:07;-1.70;99.90
46458;DHT22;32155;54.076;12.092;2024-01-10T03:48:33;-1.70;99.90
46458;DHT22;32155;54.076;12.092;2024-01-10T03:50:59;-1.60;99.90
46458;DHT22;32155;54.076;12.092;2024-01-10T03:53:27;-1.50;99.90
46458;DHT22;32155;54.076;12.092;2024-01-10T03:55:52;-1.60;99.90
46458;DHT22;32155;54.076;12.092;2024-01-10T03:58:21;-1.70;99.90
46458;DHT22;32155;54.076;12.092;2024-01-10T04:00:47;-1.70;99.90
46458;DHT22;32155;54.076;12.092;2024-01-10T04:03:12;-1.70;99.90
46458;DHT22;32155;54.076;12.092;2024-01-10T04:05:38;-1.70;99.90
46458;DHT22;32155;54.076;12.092;2024-01-10T04:08:03;-1.70;99.90
46458;DHT22;32155;54.076;12.092;2024-01-10T04:10:29;-1.60;99.90
46458;DHT22;32155;54.076;12.092;2024-01-10T04:12:55;-1.60;99.90
46458;DHT22;32155;54.076;12.092;2024-01-10T04:15:20;-1.70;99.90
46458;DHT22;32155;54.076;12.092;2024-01-10T04:17:46;-1.60;99.90
46458;DHT22;32155;54.076;12.092;2024-01-10T04:20:16;-1.70;99.90
46458;DHT22;32155;54.076;12.092;2024-01-10T04:22:41;-1.70;99.90
46458;DHT22;32155;54.076;12.092;2024-01-10T04:25:07;-1.70;99.90
46458;DHT22;32155;54.076;12.092;2024-01-10T04:27:33;-1.90;99.90
46458;DHT22;32155;54.076;12.092;2024-01-10T04:29:58;-1.90;99.90
46458;DHT22;32155;54.076;12.092;2024-01-10T04:32:24;-2.00;99.90
46458;DHT22;32155;54.076;12.092;2024-01-10T04:34:50;-1.90;99.90
46458;DHT22;32155;54.076;12.092;2024-01-10T04:37:15;-1.80;99.90
46458;DHT22;32155;54.076;12.092;2024-01-10T04:39:41;-1.90;99.90
46458;DHT22;32155;54.076;12.092;2024-01-10T04:42:08;-1.90;99.90
46458;DHT22;32155;54.076;12.092;2024-01-10T04:44:36;-2.00;99.90
46458;DHT22;32155;54.076;12.092;2024-01-10T04:47:02;-2.00;99.90
46458;DHT22;32155;54.076;12.092;2024-01-10T04:49:27;-2.00;99.90
46458;DHT22;32155;54.076;12.092;2024-01-10T04:51:53;-2.00;99.90
46458;DHT22;32155;54.076;12.092;2024-01-10T04:54:19;-2.00;99.90
46458;DHT22;32155;54.076;12.092;2024-01-10T04:56:44;-2.00;99.90
46458;DHT22;32155;54.076;12.092;2024-01-10T04:59:10;-2.00;99.90
46458;DHT22;32155;54.076;12.092;2024-01-10T05:01:38;-1.90;99.90
46458;DHT22;32155;54.076;12.092;2024-01-10T05:04:03;-2.00;99.90
46458;DHT22;32155;54.076;12.092;2024-01-10T05:06:29;-2.00;99.90
46458;DHT22;32155;54.076;12.092;2024-01-10T05:08:54;-2.00;99.90
46458;DHT22;32155;54.076;12.092;2024-01-10T05:11:24;-1.90;99.90
46458;DHT22;32155;54.076;12.092;2024-01-10T05:13:50;-1.90;99.90
46458;DHT22;32155;54.076;12.092;2024-01-10T05:16:15;-2.00;99.90
46458;DHT22;32155;54.076;12.092;2024-01-10T05:18:41;-1.90;99.90
46458;DHT22;32155;54.076;12.092;2024-01-10T05:21:07;-1.80;99.90
46458;DHT22;32155;54.076;12.092;2024-01-10T05:23:32;-1.80;99.90
46458;DHT22;32155;54.076;12.092;2024-01-10T05:25:58;-1.90;99.90
46458;DHT22;32155;54.076;12.092;2024-01-10T05:28:24;-1.90;99.90
46458;DHT22;32155;54.076;12.092;2024-01-10T05:30:49;-1.80;99.90
46458;DHT22;32155;54.076;12.092;2024-01-10T05:33:15;-1.80;99.90
46458;DHT22;32155;54.076;12.092;2024-01-10T05:35:40;-1.90;99.90
46458;DHT22;32155;54.076;12.092;2024-01-10T05:38:06;-1.80;99.90
46458;DHT22;32155;54.076;12.092;2024-01-10T05:40:31;-1.90;99.90
46458;DHT22;32155;54.076;12.092;2024-01-10T05:42:57;-2.00;99.90
46458;DHT22;32155;54.076;12.092;2024-01-10T05:45:23;-1.90;99.90
46458;DHT22;32155;54.076;12.092;2024-01-10T05:47:49;-1.90;99.90
46458;DHT22;32155;54.076;12.092;2024-01-10T05:50:17;-1.90;99.90
46458;DHT22;32155;54.076;12.092;2024-01-10T05:52:42;-1.80;99.90
46458;DHT22;32155;54.076;12.092;2024-01-10T05:55:11;-1.90;99.90
46458;DHT22;32155;54.076;12.092;2024-01-10T05:57:36;-1.90;99.90
46458;DHT22;32155;54.076;12.092;2024-01-10T06:00:03;-1.90;99.90
46458;DHT22;32155;54.076;12.092;2024-01-10T06:02:37;-1.90;99.90
46458;DHT22;32155;54.076;12.092;2024-01-10T06:07:37;-1.90;99.90
46458;DHT22;32155;54.076;12.092;2024-01-10T06:10:03;-2.00;99.90
46458;DHT22;32155;54.076;12.092;2024-01-10T06:12:29;-1.90;99.90
46458;DHT22;32155;54.076;12.092;2024-01-10T06:14:54;-1.90;99.90
46458;DHT22;32155;54.076;12.092;2024-01-10T06:17:20;-1.90;99.90
46458;DHT22;32155;54.076;12.092;2024-01-10T06:19:46;-1.90;99.90
46458;DHT22;32155;54.076;12.092;2024-01-10T06:22:11;-1.90;99.90
46458;DHT22;32155;54.076;12.092;2024-01-10T06:24:39;-1.90;99.90
46458;DHT22;32155;54.076;12.092;2024-01-10T06:27:06;-1.90;99.90
46458;DHT22;32155;54.076;12.092;2024-01-10T06:29:32;-1.90;99.90
46458;DHT22;32155;54.076;12.092;2024-01-10T06:31:58;-2.00;99.90
46458;DHT22;32155;54.076;12.092;2024-01-10T06:34:24;-2.00;99.90
46458;DHT22;32155;54.076;12.092;2024-01-10T06:36:49;-2.00;99.90
46458;DHT22;32155;54.076;12.092;2024-01-10T06:39:15;-2.10;99.90
46458;DHT22;32155;54.076;12.092;2024-01-10T06:41:42;-2.10;99.90
46458;DHT22;32155;54.076;12.092;2024-01-10T06:44:07;-2.00;99.90
46458;DHT22;32155;54.076;12.092;2024-01-10T06:46:33;-2.00;99.90
46458;DHT22;32155;54.076;12.092;2024-01-10T06:48:59;-1.90;99.90
46458;DHT22;32155;54.076;12.092;2024-01-10T06:51:24;-1.90;99.90
46458;DHT22;32155;54.076;12.092;2024-01-10T06:53:51;-1.80;99.90
46458;DHT22;32155;54.076;12.092;2024-01-10T06:56:17;-1.80;99.90
46458;DHT22;32155;54.076;12.092;2024-01-10T06:58:43;-1.80;99.90
46458;DHT22;32155;54.076;12.092;2024-01-10T07:01:12;-1.80;99.90
46458;DHT22;32155;54.076;12.092;2024-01-10T07:03:41;-1.70;99.90
46458;DHT22;32155;54.076;12.092;2024-01-10T07:06:06;-1.80;99.90
46458;DHT22;32155;54.076;12.092;2024-01-10T07:08:32;-1.80;99.90
46458;DHT22;32155;54.076;12.092;2024-01-10T07:10:58;-1.70;99.90
46458;DHT22;32155;54.076;12.092;2024-01-10T07:13:23;-1.70;99.90
46458;DHT22;32155;54.076;12.092;2024-01-10T07:15:49;-1.80;99.90
46458;DHT22;32155;54.076;12.092;2024-01-10T07:18:16;-1.70;99.90
46458;DHT22;32155;54.076;12.092;2024-01-10T07:20:42;-1.80;99.90
46458;DHT22;32155;54.076;12.092;2024-01-10T07:23:10;-1.80;99.90
46458;DHT22;32155;54.076;12.092;2024-01-10T07:25:36;-1.80;99.90
46458;DHT22;32155;54.076;12.092;2024-01-10T07:28:04;-1.70;99.90
46458;DHT22;32155;54.076;12.092;2024-01-10T07:30:30;-1.70;99.90
46458;DHT22;32155;54.076;12.092;2024-01-10T07:32:58;-1.70;99.90
46458;DHT22;32155;54.076;12.092;2024-01-10T07:35:24;-1.70;99.90
46458;DHT22;32155;54.076;12.092;2024-01-10T07:37:49;-1.70;99.90
46458;DHT22;32155;54.076;12.092;2024-01-10T07:40:17;-1.70;99.90
46458;DHT22;32155;54.076;12.092;2024-01-10T07:42:43;-1.80;99.90
46458;DHT22;32155;54.076;12.092;2024-01-10T07:45:09;-1.80;99.90
46458;DHT22;32155;54.076;12.092;2024-01-10T07:47:35;-1.90;99.90
46458;DHT22;32155;54.076;12.092;2024-01-10T07:50:04;-1.80;99.90
46458;DHT22;32155;54.076;12.092;2024-01-10T07:52:29;-1.80;99.90
46458;DHT22;32155;54.076;12.092;2024-01-10T07:54:55;-1.70;99.90
46458;DHT22;32155;54.076;12.092;2024-01-10T07:57:20;-1.70;99.90
46458;DHT22;32155;54.076;12.092;2024-01-10T07:59:46;-1.70;99.90
46458;DHT22;32155;54.076;12.092;2024-01-10T08:02:12;-1.70;99.90
46458;DHT22;32155;54.076;12.092;2024-01-10T08:04:38;-1.80;99.90
46458;DHT22;32155;54.076;12.092;2024-01-10T08:07:06;-1.80;99.90
46458;DHT22;32155;54.076;12.092;2024-01-10T08:09:35;-1.70;99.90
46458;DHT22;32155;54.076;12.092;2024-01-10T08:12:03;-1.60;99.90
46458;DHT22;32155;54.076;12.092;2024-01-10T08:14:29;-1.60;99.90
46458;DHT22;32155;54.076;12.092;2024-01-10T08:16:54;-1.70;99.90
46458;DHT22;32155;54.076;12.092;2024-01-10T08:19:26;-1.80;99.90
46458;DHT22;32155;54.076;12.092;2024-01-10T08:21:52;-1.70;99.90
46458;DHT22;32155;54.076;12.092;2024-01-10T08:24:18;-1.60;99.90
46458;DHT22;32155;54.076;12.092;2024-01-10T08:26:44;-1.60;99.90
46458;DHT22;32155;54.076;12.092;2024-01-10T08:29:12;-1.60;99.90
46458;DHT22;32155;54.076;12.092;2024-01-10T08:31:38;-1.50;99.90
46458;DHT22;32155;54.076;12.092;2024-01-10T08:34:04;-1.40;99.90
46458;DHT22;32155;54.076;12.092;2024-01-10T08:36:32;-1.40;99.90
46458;DHT22;32155;54.076;12.092;2024-01-10T08:38:58;-1.30;99.90
46458;DHT22;32155;54.076;12.092;2024-01-10T08:41:26;-1.40;99.90
46458;DHT22;32155;54.076;12.092;2024-01-10T08:43:52;-1.30;99.90
46458;DHT22;32155;54.076;12.092;2024-01-10T08:46:17;-1.20;99.90
46458;DHT22;32155;54.076;12.092;2024-01-10T08:48:43;-1.20;99.90
46458;DHT22;32155;54.076;12.092;2024-01-10T08:51:08;-1.20;99.90
46458;DHT22;32155;54.076;12.092;2024-01-10T08:53:35;-1.10;99.90
46458;DHT22;32155;54.076;12.092;2024-01-10T08:56:01;-1.10;99.90
46458;DHT22;32155;54.076;12.092;2024-01-10T08:58:26;-1.20;99.90
46458;DHT22;32155;54.076;12.092;2024-01-10T09:00:52;-1.10;99.90
46458;DHT22;32155;54.076;12.092;2024-01-10T09:03:17;-1.10;99.90
46458;DHT22;32155;54.076;12.092;2024-01-10T09:05:43;-1.10;99.90
46458;DHT22;32155;54.076;12.092;2024-01-10T09:08:08;-1.10;99.90
46458;DHT22;32155;54.076;12.092;2024-01-10T09:10:34;-1.00;99.90
46458;DHT22;32155;54.076;12.092;2024-01-10T09:12:59;-0.90;99.90
46458;DHT22;32155;54.076;12.092;2024-01-10T09:15:25;-0.90;99.90
46458;DHT22;32155;54.076;12.092;2024-01-10T09:17:50;-0.80;99.90
46458;DHT22;32155;54.076;12.092;2024-01-10T09:20:17;-0.70;99.90
46458;DHT22;32155;54.076;12.092;2024-01-10T09:22:43;-0.60;99.90
46458;DHT22;32155;54.076;12.092;2024-01-10T09:25:09;-0.50;99.90
46458;DHT22;32155;54.076;12.092;2024-01-10T09:27:35;-0.50;99.90
46458;DHT22;32155;54.076;12.092;2024-01-10T09:30:00;-0.50;99.90
46458;DHT22;32155;54.076;12.092;2024-01-10T09:32:33;-0.30;99.90
46458;DHT22;32155;54.076;12.092;2024-01-10T09:35:00;-0.30;99.90
46458;DHT22;32155;54.076;12.092;2024-01-10T09:37:25;-0.10;99.90
46458;DHT22;32155;54.076;12.092;2024-01-10T09:39:51;-0.30;99.90
46458;DHT22;32155;54.076;12.092;2024-01-10T09:42:18;-0.20;99.90
46458;DHT22;32155;54.076;12.092;2024-01-10T09:44:44;-0.20;99.90
46458;DHT22;32155;54.076;12.092;2024-01-10T09:47:13;-0.20;99.90
46458;DHT22;32155;54.076;12.092;2024-01-10T09:49:40;-0.10;99.90
46458;DHT22;32155;54.076;12.092;2024-01-10T09:52:05;-0.10;99.90
46458;DHT22;32155;54.076;12.092;2024-01-10T09:54:35;-0.10;99.90
46458;DHT22;32155;54.076;12.092;2024-01-10T09:57:03;0.00;99.90
46458;DHT22;32155;54.076;12.092;2024-01-10T09:59:29;0.00;99.90
46458;DHT22;32155;54.076;12.092;2024-01-10T10:01:55;0.10;99.90
46458;DHT22;32155;54.076;12.092;2024-01-10T10:04:21;0.10;99.90
46458;DHT22;32155;54.076;12.092;2024-01-10T10:06:57;0.20;99.90
46458;DHT22;32155;54.076;12.092;2024-01-10T10:09:23;0.30;99.90
46458;DHT22;32155;54.076;12.092;2024-01-10T10:11:53;0.40;99.90
46458;DHT22;32155;54.076;12.092;2024-01-10T10:14:19;0.40;99.90
46458;DHT22;32155;54.076;12.092;2024-01-10T10:16:44;0.40;99.90
46458;DHT22;32155;54.076;12.092;2024-01-10T10:19:10;0.40;99.90
46458;DHT22;32155;54.076;12.092;2024-01-10T10:21:37;0.50;99.90
46458;DHT22;32155;54.076;12.092;2024-01-10T10:24:05;0.50;99.90
46458;DHT22;32155;54.076;12.092;2024-01-10T10:26:34;0.50;99.90
46458;DHT22;32155;54.076;12.092;2024-01-10T10:29:00;0.40;99.90
46458;DHT22;32155;54.076;12.092;2024-01-10T10:31:25;0.40;99.90
46458;DHT22;32155;54.076;12.092;2024-01-10T10:33:51;0.40;99.90
46458;DHT22;32155;54.076;12.092;2024-01-10T10:36:17;0.40;99.90
46458;DHT22;32155;54.076;12.092;2024-01-10T10:38:42;0.40;99.90
46458;DHT22;32155;54.076;12.092;2024-01-10T10:41:08;0.50;99.90
46458;DHT22;32155;54.076;12.092;2024-01-10T10:43:37;0.50;99.90
46458;DHT22;32155;54.076;12.092;2024-01-10T10:46:07;0.50;99.90
46458;DHT22;32155;54.076;12.092;2024-01-10T10:48:33;0.50;99.90
46458;DHT22;32155;54.076;12.092;2024-01-10T10:51:03;0.60;99.90
46458;DHT22;32155;54.076;12.092;2024-01-10T10:53:32;0.70;99.90
46458;DHT22;32155;54.076;12.092;2024-01-10T10:56:04;0.60;99.90
46458;DHT22;32155;54.076;12.092;2024-01-10T10:58:34;0.60;99.90
46458;DHT22;32155;54.076;12.092;2024-01-10T11:01:03;0.60;99.90
46458;DHT22;32155;54.076;12.092;2024-01-10T11:03:30;0.90;99.90
46458;DHT22;32155;54.076;12.092;2024-01-10T11:05:57;1.00;99.90
46458;DHT22;32155;54.076;12.092;2024-01-10T11:08:23;1.00;99.90
46458;DHT22;32155;54.076;12.092;2024-01-10T11:10:52;1.10;99.90
46458;DHT22;32155;54.076;12.092;2024-01-10T11:13:32;1.20;99.90
46458;DHT22;32155;54.076;12.092;2024-01-10T11:18:51;1.10;99.90
46458;DHT22;32155;54.076;12.092;2024-01-10T11:24:03;1.20;99.90
46458;DHT22;32155;54.076;12.092;2024-01-10T11:26:29;1.30;99.90
46458;DHT22;32155;54.076;12.092;2024-01-10T11:28:56;1.30;99.90
46458;DHT22;32155;54.076;12.092;2024-01-10T11:31:28;1.40;99.90
46458;DHT22;32155;54.076;12.092;2024-01-10T11:33:57;1.40;99.90
46458;DHT22;32155;54.076;12.092;2024-01-10T11:36:23;1.40;99.90
46458;DHT22;32155;54.076;12.092;2024-01-10T11:46:48;1.30;99.90
46458;DHT22;32155;54.076;12.092;2024-01-10T11:49:15;1.50;99.90
46458;DHT22;32155;54.076;12.092;2024-01-10T11:54:09;1.40;99.90
46458;DHT22;32155;54.076;12.092;2024-01-10T11:56:41;1.40;99.90
46458;DHT22;32155;54.076;12.092;2024-01-10T11:59:07;1.40;99.90
46458;DHT22;32155;54.076;12.092;2024-01-10T12:01:36;1.30;99.90
46458;DHT22;32155;54.076;12.092;2024-01-10T12:04:03;1.30;99.90
46458;DHT22;32155;54.076;12.092;2024-01-10T12:06:29;1.20;99.90
46458;DHT22;32155;54.076;12.092;2024-01-10T12:08:59;1.20;99.90
46458;DHT22;32155;54.076;12.092;2024-01-10T12:11:25;1.30;99.90
46458;DHT22;32155;54.076;12.092;2024-01-10T12:13:50;1.20;99.90
46458;DHT22;32155;54.076;12.092;2024-01-10T12:16:16;1.30;99.90
46458;DHT22;32155;54.076;12.092;2024-01-10T12:18:43;1.20;99.90
46458;DHT22;32155;54.076;12.092;2024-01-10T12:21:08;1.20;99.90
46458;DHT22;32155;54.076;12.092;2024-01-10T12:23:34;1.10;99.90
46458;DHT22;32155;54.076;12.092;2024-01-10T12:26:03;1.10;99.90
46458;DHT22;32155;54.076;12.092;2024-01-10T12:28:30;1.00;99.90
46458;DHT22;32155;54.076;12.092;2024-01-10T12:30:56;1.20;99.90
46458;DHT22;32155;54.076;12.092;2024-01-10T12:33:22;1.30;99.90
46458;DHT22;32155;54.076;12.092;2024-01-10T12:36:04;1.40;99.90
46458;DHT22;32155;54.076;12.092;2024-01-10T12:38:31;1.50;99.90
46458;DHT22;32155;54.076;12.092;2024-01-10T12:40:57;1.30;99.90
46458;DHT22;32155;54.076;12.092;2024-01-10T12:43:22;1.30;99.90
46458;DHT22;32155;54.076;12.092;2024-01-10T12:45:51;1.30;99.90
46458;DHT22;32155;54.076;12.092;2024-01-10T12:48:27;1.40;99.90
46458;DHT22;32155;54.076;12.092;2024-01-10T12:50:52;1.50;99.90
46458;DHT22;32155;54.076;12.092;2024-01-10T12:53:18;1.50;99.90
46458;DHT22;32155;54.076;12.092;2024-01-10T12:55:43;1.40;99.90
46458;DHT22;32155;54.076;12.092;2024-01-10T12:58:09;1.60;99.90
46458;DHT22;32155;54.076;12.092;2024-01-10T13:00:35;1.60;99.90
46458;DHT22;32155;54.076;12.092;2024-01-10T13:03:01;1.50;99.90
46458;DHT22;32155;54.076;12.092;2024-01-10T13:05:28;1.50;99.90
46458;DHT22;32155;54.076;12.092;2024-01-10T13:07:55;1.50;99.90
46458;DHT22;32155;54.076;12.092;2024-01-10T13:10:22;1.60;99.90
46458;DHT22;32155;54.076;12.092;2024-01-10T13:12:48;1.50;99.90
46458;DHT22;32155;54.076;12.092;2024-01-10T13:15:16;1.40;99.90
46458;DHT22;32155;54.076;12.092;2024-01-10T13:17:43;1.40;99.90
46458;DHT22;32155;54.076;12.092;2024-01-10T13:20:09;1.60;99.90
46458;DHT22;32155;54.076;12.092;2024-01-10T13:22:38;1.50;99.90
46458;DHT22;32155;54.076;12.092;2024-01-10T13:25:07;1.60;99.90
46458;DHT22;32155;54.076;12.092;2024-01-10T13:31:10;1.50;99.90
46458;DHT22;32155;54.076;12.092;2024-01-10T13:34:00;1.60;99.90
46458;DHT22;32155;54.076;12.092;2024-01-10T14:21:12;1.10;99.90
46458;DHT22;32155;54.076;12.092;2024-01-10T14:36:26;1.10;99.90
46458;DHT22;32155;54.076;12.092;2024-01-10T14:39:05;1.00;99.90
46458;DHT22;32155;54.076;12.092;2024-01-10T14:42:07;1.10;99.90
46458;DHT22;32155;54.076;12.092;2024-01-10T14:44:53;1.00;99.90
46458;DHT22;32155;54.076;12.092;2024-01-10T14:47:23;0.90;99.90
46458;DHT22;32155;54.076;12.092;2024-01-10T14:50:03;0.90;99.90
46458;DHT22;32155;54.076;12.092;2024-01-10T15:07:59;0.80;99.90
46458;DHT22;32155;54.076;12.092;2024-01-10T15:10:36;0.80;99.90
46458;DHT22;32155;54.076;12.092;2024-01-10T15:13:09;0.90;99.90
46458;DHT22;32155;54.076;12.092;2024-01-10T15:15:38;0.90;99.90
46458;DHT22;32155;54.076;12.092;2024-01-10T15:27:44;0.90;99.90
46458;DHT22;32155;54.076;12.092;2024-01-10T15:48:45;0.90;99.90
46458;DHT22;32155;54.076;12.092;2024-01-10T15:59:50;0.80;99.90
46458;DHT22;32155;54.076;12.092;2024-01-10T16:02:19;0.90;99.90
46458;DHT22;32155;54.076;12.092;2024-01-10T16:05:07;0.80;99.90
46458;DHT22;32155;54.076;12.092;2024-01-10T16:07:45;0.90;99.90
46458;DHT22;32155;54.076;12.092;2024-01-10T16:22:55;1.00;99.90
46458;DHT22;32155;54.076;12.092;2024-01-10T16:25:26;1.00;99.90
46458;DHT22;32155;54.076;12.092;2024-01-10T16:27:55;1.00;99.90
46458;DHT22;32155;54.076;12.092;2024-01-10T16:30:50;1.00;99.90
46458;DHT22;32155;54.076;12.092;2024-01-10T16:33:16;1.00;99.90
46458;DHT22;32155;54.076;12.092;2024-01-10T16:36:09;1.00;99.90
46458;DHT22;32155;54.076;12.092;2024-01-10T16:38:53;1.00;99.90
46458;DHT22;32155;54.076;12.092;2024-01-10T16:44:13;1.10;99.90
46458;DHT22;32155;54.076;12.092;2024-01-10T16:53:21;1.10;99.90
46458;DHT22;32155;54.076;12.092;2024-01-10T16:59:21;1.20;99.90
46458;DHT22;32155;54.076;12.092;2024-01-10T17:02:12;1.20;99.90
46458;DHT22;32155;54.076;12.092;2024-01-10T17:08:07;1.20;99.90
46458;DHT22;32155;54.076;12.092;2024-01-10T17:13:32;1.20;99.90
46458;DHT22;32155;54.076;12.092;2024-01-10T17:19:02;1.30;99.90
46458;DHT22;32155;54.076;12.092;2024-01-10T17:21:28;1.30;99.90
46458;DHT22;32155;54.076;12.092;2024-01-10T17:23:59;1.30;99.90
46458;DHT22;32155;54.076;12.092;2024-01-10T17:26:30;1.30;99.90
46458;DHT22;32155;54.076;12.092;2024-01-10T17:28:59;1.40;99.90
46458;DHT22;32155;54.076;12.092;2024-01-10T17:31:51;1.50;99.90
46458;DHT22;32155;54.076;12.092;2024-01-10T17:37:27;1.30;99.90
46458;DHT22;32155;54.076;12.092;2024-01-10T17:39:56;1.30;99.90
46458;DHT22;32155;54.076;12.092;2024-01-10T17:42:22;1.30;99.90
46458;DHT22;32155;54.076;12.092;2024-01-10T17:45:09;1.30;99.90
46458;DHT22;32155;54.076;12.092;2024-01-10T17:47:35;1.30;99.90
46458;DHT22;32155;54.076;12.092;2024-01-10T17:50:01;1.40;99.90
46458;DHT22;32155;54.076;12.092;2024-01-10T17:52:29;1.40;99.90
46458;DHT22;32155;54.076;12.092;2024-01-10T17:55:00;1.30;99.90
46458;DHT22;32155;54.076;12.092;2024-01-10T17:57:47;1.30;99.90
46458;DHT22;32155;54.076;12.092;2024-01-10T18:00:15;1.30;99.90
46458;DHT22;32155;54.076;12.092;2024-01-10T18:11:52;1.30;99.90
46458;DHT22;32155;54.076;12.092;2024-01-10T18:17:44;1.40;99.90
46458;DHT22;32155;54.076;12.092;2024-01-10T18:20:30;1.30;99.90
46458;DHT22;32155;54.076;12.092;2024-01-10T18:22:56;1.40;99.90
46458;DHT22;32155;54.076;12.092;2024-01-10T18:28:18;1.40;99.90